Fish Lake Valley, Nevada Weather observations

Data are for 10 minute period ending at time listed.
 Day   Time    Ave.   Ave.  Ave.  Vector   Max.   Stn.    Total    Solar   Ave.  
  of    of     Air    Rel.  Wind   Wind    Wind   Baro.  Precip.   Rad.    Soil  
Year   Day     Temp.  Hum.  Speed  Dir.    Gust   Pres.                    Temp. 
2017   (PST)    F      %     mph   deg.    mph     mb.     in.     W/m2     F    
--------------------------------------------------------------------------------- 
  17   15:50   36.3    61    6.5   321      7.7   856.1    0.00      78    32.3  
  17   16:00   35.7    64    7.2   314      9.8   856.3    0.00      68    32.3  
  17   16:10   35.0    66    6.9   306      9.0   856.3    0.00      62    32.3  
  17   16:20   34.7    66    4.1   290      7.2   856.0    0.00      50    32.4  
  17   16:30   34.0    67    2.4   257      3.5   855.8    0.00      35    32.4  
  17   16:40   33.4    68    3.5   254      4.3   855.9    0.00      23    32.4  
  17   16:50   32.5    74    3.8   224      4.5   855.9    0.00      14    32.4  
  17   17:00   31.6    78    4.0   219      4.6   856.0    0.00       7    32.4  
  17   17:10   31.1    80    4.3   204      5.1   855.9    0.00       4    32.5  
  17   17:20   30.9    82    4.2   190      5.2   855.8    0.00       3    32.5  
  17   17:30   29.9    84    3.4   141      5.0   855.7    0.00       2    32.5  
  17   17:40   29.5    85    1.8   122      2.6   856.0    0.00       2    32.5  
  17   17:50   29.1    84    1.3    28      2.5   856.0    0.00       2    32.5  
  17   18:00   29.0    84    2.0    93      2.5   856.2    0.00       2    32.6  
  17   18:10   29.5    84    2.3   134      2.9   856.4    0.00       2    32.6  
  17   18:20   30.1    83    3.1   153      4.1   856.5    0.00       2    32.6  
  17   18:30   29.2    86    4.5   184      6.8   856.3    0.00       2    32.6  
  17   18:40   28.9    86    6.1   203      7.1   856.4    0.00       2    32.6  
  17   18:50   28.9    86    5.5   202      6.5   856.4    0.00       2    32.6  
  17   19:00   28.7    85    4.2   215      5.1   856.4    0.00       2    32.7  
  17   19:10   28.1    86    3.2    30      4.6   856.4    0.00       2    32.7  
  17   19:20   26.6    88    1.9    26      3.4   856.4    0.00       2    32.7  
  17   19:30   26.5    89    0.4   341      1.9   856.4    0.00       2    32.7  
  17   19:40   26.7    89    2.3   239      3.5   856.4    0.00       2    32.7  
  17   19:50   26.6    90    1.7   204      3.0   856.4    0.00       2    32.7  
  17   20:00   26.8    91    1.9   112      4.6   856.4    0.00       2    32.7  
  17   20:10   25.8    92    4.3   137      5.1   856.3    0.00       2    32.7  
  17   20:20   26.6    91    4.1   161      4.8   856.1    0.00       2    32.7  
  17   20:30   25.8    90    3.2   181      4.0   856.1    0.00       2    32.8  
  17   20:40   25.5    91    3.9   134      4.7   856.1    0.00       2    32.8  
  17   20:50   25.0    90    3.2    76      4.7   856.2    0.00       2    32.8  
  17   21:00   25.4    90    0.9    88      3.5   856.3    0.00       2    32.8  
  17   21:10   25.2    90    2.2   282      2.9   856.4    0.00       2    32.8  
  17   21:20   24.7    89    2.7   254      3.5   856.4    0.00       2    32.8  
  17   21:30   23.6    91    5.2   227      6.8   856.4    0.00       2    32.8  
  17   21:40   24.1    92    4.3   227      5.8   856.3    0.00       2    32.8  
  17   21:50   24.5    90    3.5   234      4.1   856.2    0.00       2    32.8  
  17   22:00   24.2    90    3.0    28      5.3   856.3    0.00       2    32.8  
  17   22:10   23.5    91    1.8    40      3.5   856.4    0.00       2    32.8  
  17   22:20   23.8    92    1.9    96      3.6   856.3    0.00       2    32.8  
  17   22:30   23.5    92    3.1   122      4.0   856.3    0.00       2    32.9  
  17   22:40   23.4    92    4.1   168      4.9   856.3    0.00       2    32.9  
  17   22:50   23.1    92    6.2   160      7.6   856.1    0.00       2    32.9  
  17   23:00   23.4    91    5.2   150      6.2   856.0    0.00       2    32.9  
  17   23:10   23.4    91    5.3   122      6.5   855.9    0.00       2    32.9  
  17   23:20   23.1    91    7.6   146     10.7   855.8    0.00       2    32.9  
  17   23:30   23.6    90    9.8   145     11.2   855.7    0.00       2    32.9  
  17   23:40   23.8    89    8.3   130     10.4   855.6    0.00       2    32.9  
  17   23:50   23.8    89    6.4   131      8.5   855.6    0.00       2    32.9  
  18    0:00   23.8    88    5.9   146      7.1   855.6    0.00       2    32.9  
  18    0:10   23.8    88    3.7   327      7.9   855.7    0.00       2    32.9  
  18    0:20   23.8    87    3.0    33      4.0   855.8    0.00       2    32.9  
  18    0:30   23.6    87    3.6    61      5.9   855.8    0.00       2    32.9  
  18    0:40   25.0    83    4.8   121      6.0   855.5    0.00       2    32.9  
  18    0:50   22.9    87    5.8   216      7.0   855.5    0.00       2    32.9  
  18    1:00   22.2    90    3.5   274      5.8   855.5    0.00       2    33.0  
  18    1:10   22.0    89    3.4    19      5.5   855.5    0.00       2    33.0  
  18    1:20   22.0    91    2.6    85      6.4   855.4    0.00       2    33.0  
  18    1:30   22.3    90    3.7   245      9.2   855.4    0.00       2    33.1  
  18    1:40   21.5    92    4.5   221      7.3   855.5    0.00       2    33.1  
  18    1:50   22.4    91    1.7    78      4.4   855.6    0.00       2    33.1  
  18    2:00   21.6    90    3.4   288      7.2   855.7    0.00       2    33.1  
  18    2:10   21.9    91    4.7   265      6.0   855.7    0.00       2    33.2  
  18    2:20   22.2    90    4.5   266      6.0   855.5    0.00       2    33.2  
  18    2:30   21.3    91    3.8   257      5.1   855.5    0.00       2    33.2  
  18    2:40   22.4    91    1.5   118      3.7   855.5    0.00       2    33.2  
  18    2:50   22.4    90    0.0     0      0.0   855.5    0.00       2    33.2  
  18    3:00   22.3    91    1.2   166      3.0   855.3    0.00       2    33.3  
  18    3:10   22.6    91    2.4   118      4.3   855.2    0.00       2    33.3  
  18    3:20   22.5    91    2.4   130      3.4   855.2    0.00       2    33.3  
  18    3:30   22.6    91    0.4   270      1.6   855.2    0.00       2    33.3  
  18    3:40   22.0    91    3.5    52      6.8   855.3    0.00       2    33.3  
  18    3:50   21.5    91    0.6    63      2.2   855.4    0.00       2    33.3  
  18    4:00   21.9    92    1.8   125      3.3   855.2    0.00       2    33.3  
  18    4:10   22.3    92    3.4   153      5.4   855.1    0.00       2    33.3  
  18    4:20   22.0    91    4.2   198      5.2   855.0    0.00       2    33.3  
  18    4:30   21.9    91    3.6   208      5.2   855.0    0.00       2    33.3  
  18    4:40   22.3    91    2.8   194      4.1   854.8    0.00       2    33.3  
  18    4:50   22.6    92    0.8   147      3.6   854.9    0.00       2    33.4  
  18    5:00   21.9    90    2.2    75      4.0   855.0    0.00       2    33.4  
  18    5:10   21.4    91    3.8   136      5.4   854.9    0.00       2    33.3  
  18    5:20   21.6    92    5.0   186      6.9   855.0    0.00       2    33.4  
  18    5:30   21.6    92    3.7   148      5.0   855.0    0.00       2    33.4  
  18    5:40   21.9    91    4.1   104      6.4   854.9    0.00       2    33.3  
  18    5:50   21.3    90    2.5   113      4.8   854.8    0.00       2    33.3  
  18    6:00   21.0    91    3.4   150      5.0   854.8    0.00       2    33.3  
  18    6:10   20.8    91    3.5    97      5.2   854.8    0.00       2    33.3  
  18    6:20   20.7    91    5.7    95      7.8   854.7    0.00       2    33.3  
  18    6:30   20.9    90    4.1   138      5.8   854.8    0.00       2    33.3  
  18    6:40   20.5    90    3.6   166      5.2   854.8    0.00       2    33.3  
  18    6:50   20.1    90    1.7   144      3.4   854.9    0.00       3    33.3  
  18    7:00   20.1    90    3.4    68      4.7   854.9    0.00       6    33.3  
  18    7:10   20.7    90    3.2   173      5.6   854.7    0.00      12    33.3  
  18    7:20   20.9    89    4.4   192      5.6   854.8    0.00      19    33.3  
  18    7:30   21.9    88    4.9   201      6.8   854.6    0.00      47    33.3  
  18    7:40   23.6    86    6.4   188      7.5   854.4    0.00      73    33.3  
  18    7:50   24.8    86    5.5   190      7.3   854.5    0.00     103    33.3  
  18    8:00   26.7    82    4.5   142      5.9   854.6    0.00     124    33.3  
  18    8:10   26.6    82    4.1    87      5.5   854.6    0.00     113    33.3  
  18    8:20   26.1    83    5.9   140      8.2   854.5    0.00     104    33.2  
  18    8:30   27.1    84    7.8   135     10.9   854.3    0.00      96    33.2  
  18    8:40   28.3    81    8.9   142     11.2   854.2    0.00     101    33.2  
  18    8:50   28.8    78    8.4   157     10.9   854.2    0.00     115    33.1  
  18    9:00   29.3    76    7.2   139      8.4   854.2    0.00     128    33.1  
  18    9:10   29.8    78    4.5   135      8.2   854.2    0.00     139    33.0  
  18    9:20   30.4    79    4.7   143      7.5   854.1    0.00     153    33.0  
  18    9:30   30.9    78    5.3   150      8.2   854.2    0.00     151    32.9  
  18    9:40   31.8    78    5.9   147      7.6   854.0    0.00     178    32.9  
  18    9:50   34.0    66    8.4   157     12.5   853.8    0.00     200    32.8  
  18   10:00   35.3    60    9.8   165     13.6   853.5    0.00     217    32.8  
  18   10:10   36.0    57    9.9   166     13.6   853.2    0.00     241    32.7  
  18   10:20   37.4    51   12.3   140     19.3   853.0    0.00     263    32.7  
  18   10:30   38.3    46   15.0   123     19.4   852.6    0.00     267    32.6  
  18   10:40   38.1    46   16.7   120     22.4   852.4    0.00     235    32.6  
  18   10:50   38.3    45   17.4   119     23.8   852.0    0.00     223    32.5  
  18   11:00   38.5    45   17.6   117     24.3   851.5    0.00     221    32.5  
  18   11:10   38.8    44   20.1   116     28.3   851.1    0.00     244    32.5  
  18   11:20   38.9    43   21.7   114     28.3   850.7    0.00     274    32.4  
  18   11:30   38.7    43   24.8   118     31.3   850.3    0.00     272    32.4  
  18   11:40   38.3    45   23.8   118     32.0   849.9    0.00     282    32.4  
  18   11:50   38.2    45   25.1   119     32.4   849.5    0.00     312    32.4  
  18   12:00   37.7    46   27.8   119     35.7   849.0    0.00     300    32.4  
  18   12:10   37.8    47   25.9   115     33.7   848.8    0.00     309    32.4  
  18   12:20   38.7    44   22.8   118     32.4   848.8    0.00     281    32.3  
  18   12:30   39.0    42   23.3   125     29.3   848.9    0.00     270    32.3  
  18   12:40   39.3    44   22.2   126     29.4   848.9    0.00     420    32.3  
  18   12:50   39.5    43   26.6   123     34.5   848.6    0.00     397    32.3  
  18   13:00   39.2    42   27.3   129     32.9   848.5    0.00     332    32.3  
  18   13:10   39.1    41   26.9   132     32.9   848.3    0.00     292    32.3  
  18   13:20   39.1    42   23.3   126     30.9   848.4    0.00     300    32.3  
  18   13:30   39.1    43   21.2   112     26.0   848.6    0.00     322    32.3  
  18   13:40   39.5    42   19.8   121     26.7   848.6    0.00     244    32.3  
  18   13:50   39.5    41   22.6   126     27.9   848.6    0.00     188    32.3  
  18   14:00   39.3    42   21.3   133     25.7   848.6    0.00     152    32.3  
  18   14:10   39.1    43   20.4   128     28.8   848.8    0.00     127    32.3  
  18   14:20   38.6    43   18.8   127     25.2   848.8    0.00      85    32.3  
  18   14:30   38.3    43   17.2   122     22.6   848.8    0.00      65    32.3  
  18   14:40   37.6    47   14.1   115     18.6   848.8    0.00      45    32.3  
  18   14:50   37.2    48   14.2   111     18.0   848.9    0.00      42    32.3  
  18   15:00   37.0    49   12.8   111     16.8   849.0    0.00      40    32.3  
  18   15:10   37.0    48   12.9   116     16.2   849.1    0.00      38    32.3  
  18   15:20   36.9    49   11.5   110     15.4   849.1    0.00      36    32.3  
  18   15:30   36.8    49   12.7   111     16.9   848.8    0.00      37    32.3  
  18   15:40   36.9    49   13.0   115     16.6   848.7    0.00      40    32.3  

Return to Fish Lake Valley, Nevada graphs page.


Western Regional Climate Center,wrcc@dri.edu